Time;durP1;ratioP1;P1;durP2;ratioP2;P2;SDS_P1;SDS_P2;PMS_P1;PMS_P2;Temp;Humidity;BMP_temperature;BMP_pressure;BME280_temperature;BME280_humidity;BME280_pressure;Samples;Min_cycle;Max_cycle;Signal;HPM_P1;HPM_P2
2022/10/08 00:03:13;;;;;;;13.05;7.28;;;;;;;;;;10144695;28;20053;-71
2022/10/08 00:08:09;;;;;;;12.70;6.68;;;;;;;;;;10144609;28;20043;-72
2022/10/08 00:13:06;;;;;;;11.25;7.95;;;;;;;;;;10145215;28;20100;-72
2022/10/08 00:18:02;;;;;;;11.95;6.70;;;;;;;;;;10145109;28;20792;-72
2022/10/08 00:23:00;;;;;;;13.95;7.72;;;;;;;;;;10145222;28;20046;-71
2022/10/08 00:27:56;;;;;;;15.00;7.47;;;;;;;;;;10152805;28;20046;-70
2022/10/08 00:32:55;;;;;;;13.55;6.88;;;;;;;;;;10154000;28;20046;-70
2022/10/08 00:37:55;;;;;;;13.70;7.32;;;;;;;;;;10149353;28;20818;-70
2022/10/08 00:42:52;;;;;;;16.08;7.25;;;;;;;;;;10151271;28;20041;-70
2022/10/08 00:47:48;;;;;;;18.92;8.07;;;;;;;;;;10146673;28;20042;-70
2022/10/08 00:53:00;;;;;;;15.30;6.80;;;;;;;;;;10145380;28;20412;-70
2022/10/08 00:58:00;;;;;;;12.55;7.07;;;;;;;;;;10146943;28;20039;-70
2022/10/08 01:02:57;;;;;;;14.68;7.28;;;;;;;;;;10143724;28;20035;-69
2022/10/08 01:08:00;;;;;;;14.27;7.82;;;;;;;;;;10146232;28;20038;-69
2022/10/08 01:13:00;;;;;;;15.40;8.07;;;;;;;;;;10146428;28;20053;-69
2022/10/08 01:17:59;;;;;;;11.60;7.25;;;;;;;;;;10150953;28;20042;-69
2022/10/08 01:23:14;;;;;;;16.05;7.50;;;;;;;;;;10150181;28;20042;-71
2022/10/08 01:28:13;;;;;;;14.07;8.13;;;;;;;;;;10139458;28;20046;-70
2022/10/08 01:33:16;;;;;;;12.68;8.30;;;;;;;;;;10150461;28;20049;-71
2022/10/08 01:38:14;;;;;;;13.85;8.43;;;;;;;;;;10146475;28;20057;-71
2022/10/08 01:43:12;;;;;;;16.45;9.02;;;;;;;;;;10139053;28;20046;-70
2022/10/08 01:48:13;;;;;;;13.43;8.00;;;;;;;;;;10145622;28;20416;-70
2022/10/08 01:53:12;;;;;;;13.25;8.05;;;;;;;;;;10149439;28;20399;-69
2022/10/08 01:58:12;;;;;;;13.25;7.90;;;;;;;;;;10135818;28;20057;-69
2022/10/08 02:03:11;;;;;;;15.65;9.38;;;;;;;;;;10149641;28;20057;-69
2022/10/08 02:08:08;;;;;;;13.02;7.80;;;;;;;;;;10148385;28;20055;-69
2022/10/08 02:13:04;;;;;;;12.30;8.32;;;;;;;;;;10147910;28;20053;-72
2022/10/08 02:18:26;;;;;;;12.70;7.95;;;;;;;;;;10147865;28;20526;-72
2022/10/08 02:23:28;;;;;;;20.77;9.30;;;;;;;;;;10143465;28;20061;-71
2022/10/08 02:28:35;;;;;;;16.85;9.20;;;;;;;;;;10142202;28;20049;-72
2022/10/08 02:33:34;;;;;;;18.92;9.27;;;;;;;;;;10149103;28;20042;-71
2022/10/08 02:38:33;;;;;;;12.95;8.45;;;;;;;;;;10148565;28;20054;-71
2022/10/08 02:43:32;;;;;;;10.68;8.85;;;;;;;;;;10143002;28;20050;-71
2022/10/08 02:48:30;;;;;;;16.52;9.85;;;;;;;;;;10154321;28;20049;-71
2022/10/08 02:53:26;;;;;;;16.20;9.65;;;;;;;;;;10148011;28;20048;-71
2022/10/08 02:58:22;;;;;;;12.40;9.80;;;;;;;;;;10145440;28;20047;-71
2022/10/08 03:03:27;;;;;;;18.85;10.23;;;;;;;;;;10141021;28;20050;-71
2022/10/08 03:08:23;;;;;;;11.70;9.88;;;;;;;;;;10148817;28;20045;-71
2022/10/08 03:13:20;;;;;;;14.60;9.52;;;;;;;;;;10147550;28;20065;-71
2022/10/08 03:18:17;;;;;;;17.05;9.75;;;;;;;;;;10144162;28;20050;-70
2022/10/08 03:23:14;;;;;;;19.83;10.20;;;;;;;;;;10148028;28;20048;-71
2022/10/08 03:28:11;;;;;;;11.55;9.45;;;;;;;;;;10139855;28;20056;-72
2022/10/08 03:33:07;;;;;;;21.60;10.05;;;;;;;;;;10139418;28;20653;-71
2022/10/08 03:38:03;;;;;;;14.23;9.88;;;;;;;;;;10141427;28;20062;-72
2022/10/08 03:42:59;;;;;;;16.75;11.15;;;;;;;;;;10147347;28;20408;-71
2022/10/08 03:47:56;;;;;;;21.20;12.18;;;;;;;;;;10141989;28;20038;-71
2022/10/08 03:52:52;;;;;;;17.80;11.27;;;;;;;;;;10144624;28;20069;-70
2022/10/08 03:57:48;;;;;;;14.93;11.43;;;;;;;;;;10145593;28;20496;-70
2022/10/08 04:02:47;;;;;;;17.55;11.60;;;;;;;;;;10149797;28;20042;-71
2022/10/08 04:07:44;;;;;;;23.77;14.18;;;;;;;;;;10146804;28;20051;-72
2022/10/08 04:12:40;;;;;;;14.05;12.32;;;;;;;;;;10150813;28;20046;-70
2022/10/08 04:17:36;;;;;;;17.58;12.30;;;;;;;;;;10153755;28;20042;-70
2022/10/08 04:22:33;;;;;;;20.70;13.60;;;;;;;;;;10144538;28;20053;-70
2022/10/08 04:27:29;;;;;;;14.30;12.88;;;;;;;;;;10152481;28;20058;-70
2022/10/08 04:32:26;;;;;;;17.13;13.90;;;;;;;;;;10152036;28;20062;-69
2022/10/08 04:37:22;;;;;;;15.25;13.75;;;;;;;;;;10148338;28;20046;-70
2022/10/08 04:42:19;;;;;;;19.42;14.13;;;;;;;;;;10160732;28;20632;-70
2022/10/08 04:47:15;;;;;;;15.55;14.13;;;;;;;;;;10149684;28;20045;-70
2022/10/08 04:52:12;;;;;;;15.15;13.57;;;;;;;;;;10151496;28;20060;-70
2022/10/08 04:57:08;;;;;;;14.85;13.35;;;;;;;;;;10152196;28;20053;-71
2022/10/08 05:02:05;;;;;;;16.35;14.57;;;;;;;;;;10150485;28;20050;-72
2022/10/08 05:07:01;;;;;;;14.80;13.57;;;;;;;;;;10150372;28;20523;-72
2022/10/08 05:11:57;;;;;;;16.98;14.70;;;;;;;;;;10156161;28;20049;-72
2022/10/08 05:16:54;;;;;;;16.65;15.35;;;;;;;;;;10152230;28;20044;-71
2022/10/08 05:21:50;;;;;;;20.50;16.45;;;;;;;;;;10149314;28;20043;-72
2022/10/08 05:26:46;;;;;;;18.13;15.98;;;;;;;;;;10151188;28;20056;-71
2022/10/08 05:31:58;;;;;;;18.77;16.23;;;;;;;;;;10144997;28;20420;-72
2022/10/08 05:36:54;;;;;;;17.80;16.15;;;;;;;;;;10143304;28;20065;-72
2022/10/08 05:41:52;;;;;;;22.02;18.48;;;;;;;;;;10147278;28;20046;-72
2022/10/08 05:46:48;;;;;;;23.05;17.95;;;;;;;;;;10151408;28;20500;-72
2022/10/08 05:51:45;;;;;;;18.98;17.02;;;;;;;;;;10137785;28;20058;-72
2022/10/08 05:56:41;;;;;;;19.35;17.25;;;;;;;;;;10149460;28;20042;-72
2022/10/08 06:01:37;;;;;;;20.88;18.73;;;;;;;;;;10146392;28;20424;-72
2022/10/08 06:06:34;;;;;;;19.70;17.70;;;;;;;;;;10147971;28;20518;-72
2022/10/08 06:11:31;;;;;;;19.70;17.75;;;;;;;;;;10158025;28;20049;-72
2022/10/08 06:16:28;;;;;;;20.38;17.83;;;;;;;;;;10151599;28;20054;-71
2022/10/08 06:21:25;;;;;;;20.52;18.50;;;;;;;;;;10148523;28;20141;-71
2022/10/08 06:26:22;;;;;;;20.10;18.27;;;;;;;;;;10140701;28;20081;-71
2022/10/08 06:31:19;;;;;;;22.20;18.48;;;;;;;;;;10147576;28;20042;-71
2022/10/08 06:36:22;;;;;;;19.35;17.70;;;;;;;;;;10142345;28;20046;-71
2022/10/08 06:41:19;;;;;;;22.05;18.95;;;;;;;;;;10138562;28;20062;-71
2022/10/08 06:46:16;;;;;;;21.75;19.75;;;;;;;;;;10139886;28;20046;-70
2022/10/08 06:51:13;;;;;;;24.55;22.10;;;;;;;;;;10149389;28;20046;-70
2022/10/08 06:56:13;;;;;;;22.95;20.88;;;;;;;;;;10141719;28;20065;-71
2022/10/08 07:01:11;;;;;;;23.30;21.20;;;;;;;;;;10148876;28;20056;-70
2022/10/08 07:06:09;;;;;;;23.90;21.65;;;;;;;;;;10144873;28;20125;-70
2022/10/08 07:11:09;;;;;;;25.65;23.38;;;;;;;;;;10147445;28;20065;-70
2022/10/08 07:16:10;;;;;;;26.35;24.08;;;;;;;;;;10149720;28;20049;-70
2022/10/08 07:21:07;;;;;;;26.75;24.55;;;;;;;;;;10142502;28;20057;-70
2022/10/08 07:26:05;;;;;;;29.75;27.58;;;;;;;;;;10146441;28;20045;-70
2022/10/08 07:31:15;;;;;;;28.58;26.38;;;;;;;;;;10149478;28;20057;-70
2022/10/08 07:36:13;;;;;;;28.33;26.13;;;;;;;;;;10159881;28;21307;-71
2022/10/08 07:41:10;;;;;;;25.63;23.38;;;;;;;;;;10139200;28;20054;-72
2022/10/08 07:46:08;;;;;;;28.00;25.80;;;;;;;;;;10158506;28;20078;-69
2022/10/08 07:51:08;;;;;;;26.98;24.73;;;;;;;;;;10122817;28;20142;-69
2022/10/08 07:56:05;;;;;;;27.42;25.02;;;;;;;;;;10152114;28;20038;-70
2022/10/08 08:01:03;;;;;;;25.17;22.73;;;;;;;;;;10136039;28;20074;-70
2022/10/08 08:06:00;;;;;;;23.65;21.73;;;;;;;;;;10145297;28;20058;-69
2022/10/08 08:10:57;;;;;;;24.30;22.38;;;;;;;;;;10148462;28;20053;-69
2022/10/08 08:15:57;;;;;;;21.67;19.70;;;;;;;;;;10149237;28;20046;-69
2022/10/08 08:20:57;;;;;;;21.17;19.42;;;;;;;;;;10148298;28;20046;-69
2022/10/08 08:25:54;;;;;;;18.90;17.15;;;;;;;;;;10151896;28;20136;-69
2022/10/08 08:30:50;;;;;;;17.88;16.15;;;;;;;;;;10149297;28;20054;-69
2022/10/08 08:35:52;;;;;;;16.63;15.23;;;;;;;;;;10147469;28;20051;-69
2022/10/08 08:40:48;;;;;;;17.90;16.00;;;;;;;;;;10117150;28;20046;-69
2022/10/08 08:45:45;;;;;;;17.45;15.30;;;;;;;;;;10129721;28;20709;-69
2022/10/08 08:50:44;;;;;;;16.08;13.30;;;;;;;;;;10142636;28;20046;-69
2022/10/08 08:55:45;;;;;;;14.55;13.07;;;;;;;;;;10145058;28;20050;-69
2022/10/08 09:00:43;;;;;;;15.27;13.77;;;;;;;;;;10127991;28;20042;-69
2022/10/08 09:05:41;;;;;;;14.40;13.10;;;;;;;;;;10103580;28;1032806;-69
2022/10/08 09:10:41;;;;;;;16.85;12.27;;;;;;;;;;10149100;28;20057;-69
2022/10/08 09:15:37;;;;;;;14.77;11.30;;;;;;;;;;10140531;28;20420;-70
2022/10/08 09:20:34;;;;;;;15.45;11.55;;;;;;;;;;10143655;28;20046;-69
2022/10/08 09:25:35;;;;;;;12.25;10.93;;;;;;;;;;10152754;28;20046;-69
2022/10/08 09:30:37;;;;;;;11.75;10.18;;;;;;;;;;10133682;28;20062;-69
2022/10/08 09:35:38;;;;;;;14.60;9.35;;;;;;;;;;10144379;28;20812;-70
2022/10/08 09:40:35;;;;;;;10.52;9.30;;;;;;;;;;10146664;28;20420;-70
2022/10/08 09:45:38;;;;;;;15.85;8.73;;;;;;;;;;10142138;28;20056;-70
2022/10/08 09:50:35;;;;;;;9.23;8.43;;;;;;;;;;10146250;28;20126;-70
2022/10/08 09:55:35;;;;;;;9.40;8.27;;;;;;;;;;10145187;28;20051;-70
2022/10/08 10:00:34;;;;;;;8.13;7.32;;;;;;;;;;10145291;28;20045;-70
2022/10/08 10:05:32;;;;;;;8.85;7.38;;;;;;;;;;10140529;28;20047;-70
2022/10/08 10:10:31;;;;;;;8.13;6.28;;;;;;;;;;10144790;28;20676;-70
2022/10/08 10:15:33;;;;;;;10.10;7.82;;;;;;;;;;10139070;28;20528;-70
2022/10/08 10:20:31;;;;;;;8.00;6.82;;;;;;;;;;10151404;28;20070;-70
2022/10/08 10:25:46;;;;;;;9.15;6.55;;;;;;;;;;10146813;28;20050;-71
2022/10/08 10:30:56;;;;;;;7.65;6.70;;;;;;;;;;10147618;28;20049;-71
2022/10/08 10:35:54;;;;;;;7.78;7.07;;;;;;;;;;10146409;28;20057;-69
2022/10/08 10:41:02;;;;;;;7.72;6.63;;;;;;;;;;10146814;28;20042;-70
2022/10/08 10:46:12;;;;;;;8.18;6.65;;;;;;;;;;10152003;28;20437;-70
2022/10/08 10:51:25;;;;;;;7.38;6.13;;;;;;;;;;10131555;28;20125;-69
2022/10/08 10:56:21;;;;;;;;;;;;;;;;;;10142033;28;20053;-70
2022/10/08 11:01:34;;;;;;;7.00;6.43;;;;;;;;;;10133811;28;20295;-69
2022/10/08 11:06:33;;;;;;;7.35;6.65;;;;;;;;;;10151102;28;20049;-68
2022/10/08 11:11:37;;;;;;;12.15;6.53;;;;;;;;;;10133454;28;20048;-68
2022/10/08 11:16:33;;;;;;;7.80;6.97;;;;;;;;;;10150740;28;20416;-68
2022/10/08 11:21:48;;;;;;;9.40;7.20;;;;;;;;;;10153663;28;20054;-68
2022/10/08 11:26:45;;;;;;;13.43;8.68;;;;;;;;;;10160590;28;20053;-67
2022/10/08 11:31:43;;;;;;;19.00;17.48;;;;;;;;;;10150890;28;20052;-68
2022/10/08 11:36:46;;;;;;;22.98;21.30;;;;;;;;;;10154073;28;20558;-68
2022/10/08 11:41:55;;;;;;;28.13;26.15;;;;;;;;;;10142990;28;20053;-68
2022/10/08 11:46:51;;;;;;;37.35;35.38;;;;;;;;;;10131804;28;20492;-66
2022/10/08 11:51:50;;;;;;;52.72;50.00;;;;;;;;;;10130847;28;20061;-67
2022/10/08 11:56:51;;;;;;;53.55;50.83;;;;;;;;;;10128985;28;20045;-67
2022/10/08 12:01:52;;;;;;;50.17;47.20;;;;;;;;;;10125073;28;20070;-67
2022/10/08 12:06:58;;;;;;;35.80;33.63;;;;;;;;;;10123827;28;20055;-68
2022/10/08 12:11:55;;;;;;;18.98;17.67;;;;;;;;;;10122237;28;20050;-68
2022/10/08 12:16:54;;;;;;;22.80;21.52;;;;;;;;;;10122326;28;20042;-69
2022/10/08 12:21:50;;;;;;;26.00;24.50;;;;;;;;;;10130676;28;20069;-69
2022/10/08 12:27:07;;;;;;;14.00;12.95;;;;;;;;;;10126529;28;20042;-68
2022/10/08 12:32:03;;;;;;;11.50;10.73;;;;;;;;;;10135627;28;20058;-68
2022/10/08 12:37:11;;;;;;;11.60;10.45;;;;;;;;;;10128794;28;20440;-68
2022/10/08 12:42:19;;;;;;;9.88;7.63;;;;;;;;;;10138351;28;20054;-68
2022/10/08 12:47:24;;;;;;;7.47;6.78;;;;;;;;;;10131714;28;20057;-68
2022/10/08 12:52:21;;;;;;;7.30;6.70;;;;;;;;;;10137566;28;20043;-68
2022/10/08 12:57:21;;;;;;;7.40;6.68;;;;;;;;;;10136715;28;20046;-68
2022/10/08 13:02:27;;;;;;;10.70;7.65;;;;;;;;;;10133665;28;20471;-68
2022/10/08 13:07:27;;;;;;;12.90;7.85;;;;;;;;;;10131967;28;20053;-68
2022/10/08 13:12:23;;;;;;;8.77;6.78;;;;;;;;;;10136258;28;20050;-67
2022/10/08 13:17:29;;;;;;;6.75;6.05;;;;;;;;;;10147007;28;20062;-68
2022/10/08 13:22:26;;;;;;;10.25;6.22;;;;;;;;;;10153561;28;20420;-68
2022/10/08 13:27:27;;;;;;;9.82;5.30;;;;;;;;;;10152646;28;20046;-68
2022/10/08 13:32:25;;;;;;;7.13;5.22;;;;;;;;;;10153220;28;20065;-68
2022/10/08 13:37:21;;;;;;;12.85;6.93;;;;;;;;;;10150112;28;20133;-68
2022/10/08 13:42:19;;;;;;;8.60;7.70;;;;;;;;;;10146546;28;20269;-68
2022/10/08 13:47:16;;;;;;;8.70;8.00;;;;;;;;;;10141841;28;20061;-68
2022/10/08 13:52:18;;;;;;;14.80;10.05;;;;;;;;;;10144985;28;20046;-68
2022/10/08 13:57:14;;;;;;;16.70;11.05;;;;;;;;;;10142541;28;20058;-68
2022/10/08 14:02:13;;;;;;;8.07;7.10;;;;;;;;;;10155270;28;20550;-68
2022/10/08 14:07:15;;;;;;;10.77;7.57;;;;;;;;;;10141472;28;20058;-68
2022/10/08 14:12:11;;;;;;;11.75;6.47;;;;;;;;;;10150615;28;20065;-68
2022/10/08 14:17:07;;;;;;;9.90;7.03;;;;;;;;;;10156478;28;20060;-67
2022/10/08 14:22:04;;;;;;;9.60;6.00;;;;;;;;;;10151427;28;20057;-67
2022/10/08 14:27:00;;;;;;;9.18;6.25;;;;;;;;;;10156200;28;20045;-67
2022/10/08 14:32:03;;;;;;;8.68;7.60;;;;;;;;;;10156095;28;20038;-68
2022/10/08 14:36:59;;;;;;;9.25;7.40;;;;;;;;;;10140563;28;20610;-68
2022/10/08 14:41:57;;;;;;;9.07;7.28;;;;;;;;;;10158876;28;20080;-68
2022/10/08 14:46:53;;;;;;;8.93;8.10;;;;;;;;;;10150156;28;20366;-68
2022/10/08 14:51:50;;;;;;;8.50;7.50;;;;;;;;;;10147259;28;20050;-68
2022/10/08 14:56:46;;;;;;;8.43;6.93;;;;;;;;;;10156533;28;20058;-67
2022/10/08 15:01:42;;;;;;;9.15;7.80;;;;;;;;;;10141781;28;20668;-68
2022/10/08 15:06:39;;;;;;;9.48;8.65;;;;;;;;;;10148272;28;20139;-67
2022/10/08 15:11:35;;;;;;;10.52;8.93;;;;;;;;;;10149763;28;20047;-67
2022/10/08 15:16:31;;;;;;;10.93;8.02;;;;;;;;;;10148356;28;20060;-67
2022/10/08 15:21:28;;;;;;;8.63;7.50;;;;;;;;;;10145267;28;20100;-68
2022/10/08 15:26:24;;;;;;;11.60;7.40;;;;;;;;;;10143812;28;20048;-67
2022/10/08 15:31:23;;;;;;;13.82;7.63;;;;;;;;;;10135952;28;20444;-68
2022/10/08 15:36:25;;;;;;;9.25;6.60;;;;;;;;;;10151744;28;20048;-68
2022/10/08 15:41:22;;;;;;;11.77;7.72;;;;;;;;;;10142668;28;20057;-68
2022/10/08 15:46:19;;;;;;;14.88;9.70;;;;;;;;;;10149280;28;20058;-68
2022/10/08 15:51:15;;;;;;;12.75;11.45;;;;;;;;;;10150156;28;20046;-68
2022/10/08 15:56:12;;;;;;;11.52;10.38;;;;;;;;;;10155506;28;20058;-67
2022/10/08 16:01:10;;;;;;;9.13;8.48;;;;;;;;;;10168058;28;20665;-67
2022/10/08 16:06:07;;;;;;;10.75;9.85;;;;;;;;;;10144774;28;20042;-67
2022/10/08 16:11:12;;;;;;;14.60;10.20;;;;;;;;;;10160579;28;20042;-69
2022/10/08 16:16:09;;;;;;;14.27;11.82;;;;;;;;;;10152898;28;20050;-67
2022/10/08 16:21:11;;;;;;;14.95;13.52;;;;;;;;;;10146181;28;20677;-69
2022/10/08 16:26:09;;;;;;;13.95;12.88;;;;;;;;;;10146145;28;20049;-66
2022/10/08 16:31:06;;;;;;;16.95;15.52;;;;;;;;;;10153085;28;20063;-67
2022/10/08 16:36:04;;;;;;;22.23;20.30;;;;;;;;;;10159293;28;20488;-67
2022/10/08 16:41:17;;;;;;;19.48;17.63;;;;;;;;;;10160740;28;20038;-67
2022/10/08 16:46:15;;;;;;;21.05;19.15;;;;;;;;;;10153493;28;20149;-66
2022/10/08 16:51:11;;;;;;;22.23;20.40;;;;;;;;;;10154644;28;20077;-66
2022/10/08 16:56:07;;;;;;;22.50;20.83;;;;;;;;;;10152533;28;20057;-67
2022/10/08 17:01:05;;;;;;;22.25;20.55;;;;;;;;;;10149074;28;20154;-67
2022/10/08 17:06:02;;;;;;;24.02;22.02;;;;;;;;;;10146322;28;20051;-66
2022/10/08 17:11:01;;;;;;;24.45;22.77;;;;;;;;;;10149454;28;20046;-67
2022/10/08 17:15:58;;;;;;;25.45;23.15;;;;;;;;;;10147416;28;20047;-68
2022/10/08 17:20:55;;;;;;;26.13;24.30;;;;;;;;;;10132536;28;20076;-67
2022/10/08 17:25:56;;;;;;;34.15;31.35;;;;;;;;;;10132428;28;20583;-66
2022/10/08 17:30:52;;;;;;;33.83;31.42;;;;;;;;;;10146019;28;20042;-66
2022/10/08 17:35:49;;;;;;;48.45;45.30;;;;;;;;;;10145704;28;20504;-66
2022/10/08 17:40:45;;;;;;;50.85;47.78;;;;;;;;;;10148256;28;20057;-66
2022/10/08 17:45:41;;;;;;;54.08;50.85;;;;;;;;;;10141953;28;20049;-66
2022/10/08 17:50:38;;;;;;;63.55;59.65;;;;;;;;;;10147965;28;20054;-66
2022/10/08 17:55:34;;;;;;;67.68;63.58;;;;;;;;;;10147138;28;20053;-68
2022/10/08 18:00:30;;;;;;;74.97;71.00;;;;;;;;;;10147013;28;20488;-67
2022/10/08 18:05:26;;;;;;;82.25;77.68;;;;;;;;;;10139316;28;20523;-67
2022/10/08 18:10:23;;;;;;;83.18;78.78;;;;;;;;;;10132415;28;20057;-67
2022/10/08 18:15:19;;;;;;;86.28;81.30;;;;;;;;;;10144243;28;20078;-67
2022/10/08 18:20:15;;;;;;;81.75;76.93;;;;;;;;;;10140120;28;20049;-67
2022/10/08 18:25:12;;;;;;;73.88;69.47;;;;;;;;;;10128946;28;20057;-67
2022/10/08 18:30:08;;;;;;;82.85;78.07;;;;;;;;;;10143989;28;20046;-67
2022/10/08 18:35:05;;;;;;;86.03;81.00;;;;;;;;;;10148001;28;20073;-67
2022/10/08 18:40:02;;;;;;;74.82;70.53;;;;;;;;;;10145309;28;20043;-67
2022/10/08 18:44:58;;;;;;;82.25;77.47;;;;;;;;;;10143064;28;20045;-67
2022/10/08 18:49:54;;;;;;;80.38;75.65;;;;;;;;;;10144025;28;20065;-67
2022/10/08 18:54:51;;;;;;;78.88;74.57;;;;;;;;;;10145585;28;20504;-67
2022/10/08 18:59:47;;;;;;;87.15;82.53;;;;;;;;;;10146107;28;20567;-67
2022/10/08 19:04:43;;;;;;;85.07;79.82;;;;;;;;;;10138879;28;20527;-67
2022/10/08 19:09:40;;;;;;;80.05;75.55;;;;;;;;;;10142055;28;20050;-67
2022/10/08 19:14:36;;;;;;;60.08;56.60;;;;;;;;;;10133406;28;20061;-67
2022/10/08 19:19:32;;;;;;;64.13;60.28;;;;;;;;;;10149848;28;20527;-67
2022/10/08 19:24:29;;;;;;;53.60;50.03;;;;;;;;;;10138082;28;20047;-67
2022/10/08 19:29:28;;;;;;;53.10;50.08;;;;;;;;;;10158314;28;20053;-67
2022/10/08 19:34:25;;;;;;;55.70;52.38;;;;;;;;;;10151146;28;20085;-67
2022/10/08 19:39:23;;;;;;;58.65;55.33;;;;;;;;;;10151655;28;20070;-67
2022/10/08 19:44:19;;;;;;;60.88;57.00;;;;;;;;;;10157133;28;20436;-67
2022/10/08 19:49:16;;;;;;;62.92;59.22;;;;;;;;;;10156391;28;20475;-67
2022/10/08 19:54:13;;;;;;;63.95;60.20;;;;;;;;;;10148123;28;20500;-67
2022/10/08 19:59:10;;;;;;;70.13;66.03;;;;;;;;;;10149419;28;20050;-67
2022/10/08 20:04:08;;;;;;;69.00;64.93;;;;;;;;;;10150874;28;20050;-67
2022/10/08 20:09:04;;;;;;;73.85;69.53;;;;;;;;;;10147336;28;20047;-67
2022/10/08 20:14:01;;;;;;;85.35;80.43;;;;;;;;;;10156093;28;20043;-67
2022/10/08 20:19:01;;;;;;;84.55;79.55;;;;;;;;;;10148103;28;20046;-67
2022/10/08 20:23:57;;;;;;;90.40;85.53;;;;;;;;;;10149455;28;20034;-67
2022/10/08 20:28:58;;;;;;;90.45;84.80;;;;;;;;;;10150279;28;20101;-68
2022/10/08 20:33:58;;;;;;;95.63;90.63;;;;;;;;;;10149524;28;20065;-67
2022/10/08 20:38:54;;;;;;;94.78;89.15;;;;;;;;;;10139287;28;20042;-68
2022/10/08 20:43:51;;;;;;;101.53;95.47;;;;;;;;;;10146146;28;20050;-68
2022/10/08 20:48:47;;;;;;;99.10;94.03;;;;;;;;;;10157526;28;20142;-68
2022/10/08 20:53:51;;;;;;;98.30;92.68;;;;;;;;;;10151909;28;20077;-66
2022/10/08 20:58:48;;;;;;;92.88;87.47;;;;;;;;;;10146886;28;20047;-66
2022/10/08 21:03:44;;;;;;;94.38;89.22;;;;;;;;;;10152419;28;20046;-66
2022/10/08 21:08:42;;;;;;;90.00;84.80;;;;;;;;;;10142669;28;20060;-66
2022/10/08 21:13:39;;;;;;;96.60;90.97;;;;;;;;;;10138450;28;20052;-66
2022/10/08 21:18:35;;;;;;;91.40;85.88;;;;;;;;;;10141276;28;20045;-67
2022/10/08 21:23:32;;;;;;;91.28;85.88;;;;;;;;;;10141888;28;20066;-66
2022/10/08 21:28:28;;;;;;;94.35;88.50;;;;;;;;;;10141230;28;20042;-66
2022/10/08 21:33:24;;;;;;;92.22;86.95;;;;;;;;;;10150279;28;20184;-66
2022/10/08 21:38:21;;;;;;;84.70;79.50;;;;;;;;;;10150488;28;20061;-66
2022/10/08 21:43:17;;;;;;;85.30;80.22;;;;;;;;;;10143689;28;20428;-68
2022/10/08 21:48:13;;;;;;;91.68;86.43;;;;;;;;;;10147717;28;20042;-67
2022/10/08 21:53:10;;;;;;;87.32;82.22;;;;;;;;;;10148269;28;20692;-67
2022/10/08 21:58:06;;;;;;;82.30;77.13;;;;;;;;;;10146020;28;20066;-68
2022/10/08 22:03:02;;;;;;;81.97;77.13;;;;;;;;;;10148714;28;20061;-68
2022/10/08 22:07:58;;;;;;;81.05;76.57;;;;;;;;;;10147504;28;20134;-68
2022/10/08 22:12:55;;;;;;;84.03;78.93;;;;;;;;;;10144930;28;20050;-68
2022/10/08 22:17:51;;;;;;;83.32;78.20;;;;;;;;;;10148700;28;20052;-68
2022/10/08 22:22:48;;;;;;;82.07;77.38;;;;;;;;;;10146323;28;20181;-68
2022/10/08 22:27:45;;;;;;;84.07;78.50;;;;;;;;;;10147474;28;20129;-68
2022/10/08 22:32:41;;;;;;;79.28;74.35;;;;;;;;;;10140928;28;20057;-67
2022/10/08 22:37:37;;;;;;;79.07;74.57;;;;;;;;;;10145212;28;20049;-66
2022/10/08 22:42:33;;;;;;;79.72;74.68;;;;;;;;;;10146513;28;20050;-67
2022/10/08 22:47:30;;;;;;;77.68;73.00;;;;;;;;;;10146796;28;20054;-67
2022/10/08 22:52:26;;;;;;;78.65;74.30;;;;;;;;;;10146538;28;20056;-68
2022/10/08 22:57:22;;;;;;;74.47;69.85;;;;;;;;;;10144302;28;20116;-66
2022/10/08 23:02:18;;;;;;;72.55;67.97;;;;;;;;;;10143602;28;20077;-66
2022/10/08 23:07:15;;;;;;;74.55;70.03;;;;;;;;;;10145013;28;20703;-67
2022/10/08 23:12:11;;;;;;;73.20;68.93;;;;;;;;;;10143731;28;20053;-67
2022/10/08 23:17:07;;;;;;;73.20;68.80;;;;;;;;;;10144073;28;20527;-66
2022/10/08 23:22:03;;;;;;;71.18;66.57;;;;;;;;;;10145791;28;20059;-66
2022/10/08 23:27:00;;;;;;;71.53;67.35;;;;;;;;;;10148779;28;20050;-67
2022/10/08 23:31:56;;;;;;;79.20;74.57;;;;;;;;;;10143614;28;20064;-67
2022/10/08 23:36:52;;;;;;;79.38;74.70;;;;;;;;;;10145744;28;20046;-68
2022/10/08 23:41:49;;;;;;;81.13;76.50;;;;;;;;;;10141986;28;20075;-68
2022/10/08 23:46:45;;;;;;;82.47;77.35;;;;;;;;;;10142921;28;20046;-68
2022/10/08 23:51:42;;;;;;;80.43;75.35;;;;;;;;;;10146442;28;20038;-68
2022/10/08 23:56:38;;;;;;;75.35;71.05;;;;;;;;;;10138826;28;20038;-68
